Time;durP1;ratioP1;P1;durP2;ratioP2;P2;SDS_P1;SDS_P2;PMS_P1;PMS_P2;Temp;Humidity;BMP_temperature;BMP_pressure;BME280_temperature;BME280_humidity;BME280_pressure;Samples;Min_cycle;Max_cycle;Signal;HPM_P1;HPM_P2
2022/03/14 00:00:10;;;;;;;4.72;3.15;;;;;;;19.04;39.15;101920.84;4986853;28;20034;-43
2022/03/14 00:02:36;;;;;;;5.10;3.20;;;;;;;19.03;39.08;101919.19;4995424;28;20022;-43
2022/03/14 00:05:05;;;;;;;4.30;3.38;;;;;;;19.02;39.20;101923.63;4987335;28;20035;-44
2022/03/14 00:07:34;;;;;;;5.93;3.50;;;;;;;19.01;39.08;101922.00;4988534;28;20085;-43
2022/03/14 00:10:01;;;;;;;4.32;3.25;;;;;;;19.01;39.08;101923.81;4988114;28;20502;-48
2022/03/14 00:12:28;;;;;;;4.35;3.45;;;;;;;19.00;39.09;101919.50;4980964;28;20556;-43
2022/03/14 00:14:55;;;;;;;4.85;3.58;;;;;;;18.98;38.96;101917.03;5001280;28;20034;-44
2022/03/14 00:17:24;;;;;;;4.65;3.60;;;;;;;18.98;39.01;101918.84;4985382;28;20041;-44
2022/03/14 00:19:50;;;;;;;5.07;3.90;;;;;;;18.97;38.89;101923.31;5002622;28;20104;-44
2022/03/14 00:22:21;;;;;;;5.70;3.25;;;;;;;18.96;38.98;101919.00;4988378;28;20030;-43
2022/03/14 00:24:46;;;;;;;4.85;3.20;;;;;;;18.96;39.00;101912.91;4989567;28;20034;-42
2022/03/14 00:27:12;;;;;;;3.85;2.78;;;;;;;18.96;39.01;101916.38;4988421;28;20034;-42
2022/03/14 00:29:38;;;;;;;3.80;2.95;;;;;;;18.97;38.97;101917.19;4986797;28;20473;-43
2022/03/14 00:32:04;;;;;;;4.45;2.70;;;;;;;18.97;39.01;101914.56;4986428;28;20489;-45
2022/03/14 00:34:29;;;;;;;4.25;2.97;;;;;;;18.97;39.00;101912.75;4987107;28;20040;-43
2022/03/14 00:36:55;;;;;;;4.80;3.35;;;;;;;18.98;38.95;101910.94;4987964;28;20406;-42
2022/03/14 00:39:20;;;;;;;3.75;3.08;;;;;;;18.98;38.89;101910.94;4987436;28;20080;-48
2022/03/14 00:41:46;;;;;;;6.35;3.03;;;;;;;18.97;39.01;101919.84;4986006;28;20093;-45
2022/03/14 00:44:15;;;;;;;4.68;3.00;;;;;;;18.97;38.80;101914.56;4986735;28;20058;-47
2022/03/14 00:46:41;;;;;;;3.53;3.20;;;;;;;18.96;38.89;101916.38;4981309;28;20062;-46
2022/03/14 00:49:07;;;;;;;4.85;3.35;;;;;;;18.96;38.79;101915.53;4988389;28;20117;-43
2022/03/14 00:51:35;;;;;;;4.45;3.38;;;;;;;18.95;38.76;101916.53;4985617;28;20722;-46
2022/03/14 00:54:02;;;;;;;4.60;3.50;;;;;;;18.95;38.87;101925.28;4986585;28;20480;-46
2022/03/14 00:56:28;;;;;;;5.07;3.10;;;;;;;18.93;38.71;101914.06;4985323;28;20042;-46
2022/03/14 00:58:54;;;;;;;4.05;3.15;;;;;;;18.92;38.65;101922.13;4987673;28;20440;-43
2022/03/14 01:01:21;;;;;;;4.13;3.22;;;;;;;18.90;38.68;101925.78;4985290;28;20030;-44
2022/03/14 01:03:47;;;;;;;4.30;3.15;;;;;;;18.88;38.76;101925.13;4984953;28;20134;-46
2022/03/14 01:06:12;;;;;;;5.75;2.80;;;;;;;18.86;38.67;101919.19;4985759;28;20158;-45
2022/03/14 01:08:38;;;;;;;4.00;3.20;;;;;;;18.86;38.63;101916.56;4988013;28;20030;-43
2022/03/14 01:11:04;;;;;;;4.28;3.63;;;;;;;18.85;38.60;101914.91;4983302;28;20127;-42
2022/03/14 01:13:30;;;;;;;4.22;3.65;;;;;;;18.83;38.61;101914.25;4983294;28;20049;-43
2022/03/14 01:15:56;;;;;;;3.80;2.90;;;;;;;18.83;38.58;101916.88;4986635;28;20034;-41
2022/03/14 01:18:21;;;;;;;3.58;2.80;;;;;;;18.81;38.52;101913.56;4998540;28;20058;-44
2022/03/14 01:20:47;;;;;;;4.18;3.47;;;;;;;18.81;38.54;101913.56;4986628;28;20167;-44
2022/03/14 01:23:12;;;;;;;3.47;2.92;;;;;;;18.81;38.43;101910.09;4985571;28;20037;-44
2022/03/14 01:25:38;;;;;;;5.55;3.70;;;;;;;18.79;38.43;101901.53;4986913;28;20473;-42
2022/03/14 01:28:04;;;;;;;7.03;3.38;;;;;;;18.79;38.46;101912.91;4984247;28;20070;-48
2022/03/14 01:30:30;;;;;;;6.57;3.08;;;;;;;18.77;38.36;101909.59;4986366;28;20034;-49
2022/03/14 01:32:57;;;;;;;3.75;3.22;;;;;;;18.75;38.51;101916.88;4986568;28;20045;-49
2022/03/14 01:35:23;;;;;;;3.67;2.92;;;;;;;18.76;38.46;101910.59;4985773;28;20118;-42
2022/03/14 01:37:49;;;;;;;3.15;2.80;;;;;;;18.75;38.33;101918.69;4985040;28;20121;-45
2022/03/14 01:40:14;;;;;;;3.17;2.85;;;;;;;18.74;38.31;101915.22;4986851;28;20046;-45
2022/03/14 01:42:40;;;;;;;4.07;3.30;;;;;;;18.74;38.29;101920.50;4980286;28;20106;-46
2022/03/14 01:45:06;;;;;;;4.38;3.05;;;;;;;18.73;38.33;101924.13;4985048;28;20474;-46
2022/03/14 01:47:34;;;;;;;3.95;3.13;;;;;;;18.73;38.32;101918.00;4985938;28;20034;-44
2022/03/14 01:50:00;;;;;;;4.20;2.72;;;;;;;18.72;38.33;101924.28;4983853;28;20106;-46
2022/03/14 01:52:25;;;;;;;4.63;3.38;;;;;;;18.72;38.24;101926.91;4984504;28;20042;-48
2022/03/14 01:54:52;;;;;;;3.15;2.75;;;;;;;18.70;38.16;101926.25;4985319;28;20130;-45
2022/03/14 01:57:18;;;;;;;3.40;2.80;;;;;;;18.69;38.27;101927.25;4984338;28;20085;-45
2022/03/14 01:59:44;;;;;;;3.92;2.65;;;;;;;18.67;38.24;101932.69;4982713;28;20033;-45
2022/03/14 02:02:09;;;;;;;4.65;2.75;;;;;;;18.67;38.20;101932.69;4981982;28;20026;-44
2022/03/14 02:04:36;;;;;;;3.80;2.88;;;;;;;18.65;38.15;101926.75;4980013;28;20045;-43
2022/03/14 02:07:02;;;;;;;3.25;2.38;;;;;;;18.66;38.10;101932.84;4985933;28;20529;-43
2022/03/14 02:09:27;;;;;;;2.92;2.30;;;;;;;18.63;38.10;101923.44;4985827;28;20501;-44
2022/03/14 02:11:56;;;;;;;2.72;2.25;;;;;;;18.62;38.13;101937.63;5045507;22;20058;-64
2022/03/14 02:14:22;;;;;;;3.70;3.10;;;;;;;18.62;38.05;101934.97;5008012;28;20056;-62
2022/03/14 02:16:49;;;;;;;7.15;2.50;;;;;;;18.61;38.08;101935.97;5008571;28;20056;-62
2022/03/14 02:19:14;;;;;;;6.28;2.28;;;;;;;18.61;38.04;101932.50;5008090;28;20558;-63
2022/03/14 02:21:40;;;;;;;2.65;2.17;;;;;;;18.60;38.06;101934.31;5008687;28;20134;-63
2022/03/14 02:24:06;;;;;;;5.25;2.47;;;;;;;18.57;37.98;101930.16;5008066;28;20514;-63
2022/03/14 02:26:31;;;;;;;3.65;2.22;;;;;;;18.58;38.00;101925.69;5008220;28;20050;-62
2022/03/14 02:28:58;;;;;;;4.53;2.88;;;;;;;18.57;38.06;101929.31;5008285;28;20071;-62
2022/03/14 02:31:24;;;;;;;7.90;2.88;;;;;;;18.55;37.89;101921.56;5008210;28;20374;-62
2022/03/14 02:33:49;;;;;;;3.42;2.28;;;;;;;18.55;38.04;101926.03;5008064;28;20116;-63
2022/03/14 02:36:15;;;;;;;3.22;2.22;;;;;;;18.53;37.96;101915.63;5008345;28;20034;-62
2022/03/14 02:38:40;;;;;;;3.83;2.53;;;;;;;18.53;38.05;101925.34;5008292;28;20029;-62
2022/03/14 02:41:06;;;;;;;4.40;2.67;;;;;;;18.51;38.08;101920.22;5008232;28;20037;-62
2022/03/14 02:43:31;;;;;;;3.97;2.42;;;;;;;18.51;38.08;101922.03;5008500;28;20393;-62
2022/03/14 02:45:56;;;;;;;3.75;2.97;;;;;;;18.51;38.08;101920.22;5007821;28;20085;-63
2022/03/14 02:48:23;;;;;;;4.10;2.28;;;;;;;18.52;37.99;101926.34;5007728;28;20029;-63
2022/03/14 02:50:53;;;;;;;4.85;2.50;;;;;;;18.53;37.92;101923.53;5008156;28;20073;-62
2022/03/14 02:53:19;;;;;;;6.28;2.50;;;;;;;18.53;37.94;101928.81;5007990;28;20033;-62
2022/03/14 02:55:44;;;;;;;3.03;2.15;;;;;;;18.54;37.90;101927.84;5022938;28;20045;-63
2022/03/14 02:58:10;;;;;;;5.18;2.20;;;;;;;18.53;37.82;101931.47;5010538;28;20029;-63
2022/03/14 03:00:36;;;;;;;5.05;3.00;;;;;;;18.55;37.86;101936.56;5011948;28;20025;-63
2022/03/14 03:03:03;;;;;;;2.63;2.25;;;;;;;18.55;37.81;101931.28;5011919;28;20022;-62
2022/03/14 03:05:30;;;;;;;3.83;2.45;;;;;;;18.54;37.77;101943.66;5011877;28;20486;-63
2022/03/14 03:07:59;;;;;;;2.63;2.05;;;;;;;18.54;37.81;101946.31;5011938;28;20561;-62
2022/03/14 03:10:26;;;;;;;2.85;2.10;;;;;;;18.55;37.74;101952.41;5012129;28;20030;-62
2022/03/14 03:12:52;;;;;;;4.10;2.70;;;;;;;18.54;37.77;101948.13;5011532;28;20052;-63
2022/03/14 03:15:18;;;;;;;3.78;2.20;;;;;;;18.52;37.79;101952.72;5011907;28;20030;-63
2022/03/14 03:17:44;;;;;;;4.88;2.53;;;;;;;18.50;37.72;101947.63;5011800;28;20117;-63
2022/03/14 03:20:10;;;;;;;2.85;2.28;;;;;;;18.49;37.78;101963.59;5011281;28;20474;-63
2022/03/14 03:22:36;;;;;;;2.20;2.00;;;;;;;18.47;37.70;101969.03;5011835;28;20041;-62
2022/03/14 03:25:02;;;;;;;6.00;2.67;;;;;;;18.46;37.83;101963.91;5011104;28;20216;-62
2022/03/14 03:27:28;;;;;;;4.25;2.15;;;;;;;18.45;37.72;101978.09;5011490;28;20577;-62
2022/03/14 03:29:53;;;;;;;2.47;2.10;;;;;;;18.43;37.71;101980.09;5011749;28;20428;-62
2022/03/14 03:32:18;;;;;;;3.47;2.20;;;;;;;18.43;37.63;101975.63;5011309;28;20539;-62
2022/03/14 03:34:44;;;;;;;2.13;1.92;;;;;;;18.41;37.62;101987.34;5011433;28;20440;-62
2022/03/14 03:37:09;;;;;;;2.38;2.05;;;;;;;18.40;37.63;101986.53;5011550;28;20079;-62
2022/03/14 03:39:35;;;;;;;2.78;2.00;;;;;;;18.38;37.62;101991.13;5011351;28;20145;-62
2022/03/14 03:42:00;;;;;;;2.60;1.77;;;;;;;18.37;37.66;101986.00;5011451;28;20022;-62
2022/03/14 03:44:26;;;;;;;3.38;2.35;;;;;;;18.36;37.57;101989.63;5010940;28;20034;-62
2022/03/14 03:46:51;;;;;;;2.33;1.90;;;;;;;18.34;37.58;101997.72;5011159;28;20492;-63
2022/03/14 03:49:17;;;;;;;2.78;1.98;;;;;;;18.34;37.58;101986.34;5011430;28;20568;-62
2022/03/14 03:51:42;;;;;;;2.53;1.90;;;;;;;18.33;37.59;102001.34;5010838;28;20032;-62
2022/03/14 03:54:08;;;;;;;2.95;1.90;;;;;;;18.31;37.49;102002.47;5011283;28;20110;-61
2022/03/14 03:56:34;;;;;;;2.95;2.00;;;;;;;18.31;37.61;102003.31;5011268;28;20030;-63
2022/03/14 03:59:00;;;;;;;2.15;1.90;;;;;;;18.31;37.57;102002.47;5010856;28;20069;-63
2022/03/14 04:01:25;;;;;;;3.13;2.10;;;;;;;18.31;37.61;102002.47;5010774;28;20026;-63
2022/03/14 04:03:54;;;;;;;3.03;2.13;;;;;;;18.31;37.56;101995.38;5010650;28;20058;-63
2022/03/14 04:06:29;;;;;;;3.75;2.25;;;;;;;18.30;37.50;102000.81;5010618;28;20018;-61
2022/03/14 04:08:55;;;;;;;1.83;1.65;;;;;;;18.28;37.57;101998.34;5010176;28;20389;-63
2022/03/14 04:11:21;;;;;;;2.78;2.22;;;;;;;18.29;37.66;102005.28;5010372;28;20184;-62
2022/03/14 04:13:48;;;;;;;2.75;2.10;;;;;;;18.30;37.46;102006.09;5010314;28;20045;-63
2022/03/14 04:16:17;;;;;;;3.58;2.10;;;;;;;18.29;37.48;102007.91;5010878;28;20037;-63
2022/03/14 04:18:43;;;;;;;3.20;2.42;;;;;;;18.28;37.55;102008.91;5010503;28;20038;-62
2022/03/14 04:21:09;;;;;;;2.72;1.77;;;;;;;18.28;37.46;102010.69;5010461;28;20378;-63
2022/03/14 04:23:34;;;;;;;2.72;2.38;;;;;;;18.26;37.46;102010.03;5010690;28;20032;-63
2022/03/14 04:25:59;;;;;;;3.40;2.70;;;;;;;18.24;37.65;102011.00;5010403;28;20040;-62
2022/03/14 04:28:25;;;;;;;4.55;2.50;;;;;;;18.24;37.49;102012.81;5010113;28;20064;-62
2022/03/14 04:30:51;;;;;;;3.15;1.80;;;;;;;18.22;37.68;102009.53;5010257;28;20077;-63
2022/03/14 04:33:16;;;;;;;8.55;2.08;;;;;;;18.21;37.74;102005.22;5010398;28;20088;-63
2022/03/14 04:35:42;;;;;;;2.30;1.70;;;;;;;18.19;37.74;102012.47;5010330;28;20029;-62
2022/03/14 04:38:07;;;;;;;3.45;2.40;;;;;;;18.17;37.76;102012.63;5010335;28;20087;-63
2022/03/14 04:40:34;;;;;;;3.53;1.88;;;;;;;18.16;37.76;102010.97;5009786;28;20170;-61
2022/03/14 04:43:07;;;;;;;2.30;1.88;;;;;;;18.15;37.71;102011.94;5010179;28;20030;-63
2022/03/14 04:45:32;;;;;;;2.08;1.63;;;;;;;18.13;37.66;102019.19;5010504;28;20390;-63
2022/03/14 04:47:59;;;;;;;3.20;2.60;;;;;;;18.12;37.70;102020.19;5010457;28;20128;-63
2022/03/14 04:50:25;;;;;;;3.45;2.28;;;;;;;18.13;37.86;102023.63;5010043;28;20139;-63
2022/03/14 04:52:50;;;;;;;3.85;1.95;;;;;;;18.12;37.60;102029.91;5009954;28;20084;-63
2022/03/14 04:55:16;;;;;;;2.70;1.85;;;;;;;18.11;37.52;102028.25;5009689;28;20026;-63
2022/03/14 04:57:42;;;;;;;3.90;2.63;;;;;;;18.10;37.66;102030.06;5009833;28;20037;-62
2022/03/14 05:00:08;;;;;;;2.35;2.15;;;;;;;18.09;37.49;102033.69;5009526;28;20092;-63
2022/03/14 05:02:34;;;;;;;2.58;2.38;;;;;;;18.09;37.51;102030.22;5024520;28;20029;-63
2022/03/14 05:05:00;;;;;;;2.47;2.10;;;;;;;18.06;37.51;102033.97;5009752;28;20026;-63
2022/03/14 05:07:26;;;;;;;4.35;2.65;;;;;;;18.05;37.52;102037.59;5010032;28;20054;-62
2022/03/14 05:09:52;;;;;;;2.63;2.33;;;;;;;18.06;37.44;102041.91;5009497;28;20346;-62
2022/03/14 05:12:17;;;;;;;2.78;2.08;;;;;;;18.08;37.43;102044.38;5009186;28;20052;-63
2022/03/14 05:14:42;;;;;;;3.60;2.60;;;;;;;18.09;37.40;102046.03;5009621;28;20168;-63
2022/03/14 05:17:09;;;;;;;3.25;2.47;;;;;;;18.10;37.19;102043.25;5009253;28;20417;-63
2022/03/14 05:19:34;;;;;;;2.80;2.35;;;;;;;18.11;37.17;102038.78;5009285;28;20022;-63
2022/03/14 05:22:01;;;;;;;3.53;2.50;;;;;;;18.12;37.09;102038.63;5008677;28;20029;-62
2022/03/14 05:24:26;;;;;;;2.15;1.92;;;;;;;18.13;37.25;102053.47;5009720;28;20103;-62
2022/03/14 05:26:53;;;;;;;2.95;2.25;;;;;;;18.13;37.15;102050.03;5009200;28;20482;-63
2022/03/14 05:29:20;;;;;;;2.97;1.90;;;;;;;18.12;37.02;102046.56;5009655;28;20359;-63
2022/03/14 05:31:46;;;;;;;3.80;2.38;;;;;;;18.13;37.19;102053.47;5009393;28;20029;-62
2022/03/14 05:34:12;;;;;;;2.75;2.30;;;;;;;18.13;37.09;102057.94;5009387;28;20025;-63
2022/03/14 05:36:37;;;;;;;2.55;2.22;;;;;;;18.13;37.01;102069.31;5009309;28;20445;-63
2022/03/14 05:39:04;;;;;;;2.92;2.53;;;;;;;18.13;36.99;102068.47;5009344;28;20569;-62
2022/03/14 05:41:30;;;;;;;2.42;2.03;;;;;;;18.11;37.05;102067.81;5009309;28;20044;-63
2022/03/14 05:43:55;;;;;;;2.78;2.03;;;;;;;18.10;37.10;102080.16;5009098;28;20022;-63
2022/03/14 05:46:21;;;;;;;3.60;2.42;;;;;;;18.08;37.05;102071.56;5009143;28;20104;-63
2022/03/14 05:48:46;;;;;;;2.45;2.10;;;;;;;18.08;37.14;102081.31;5009115;28;20026;-62
2022/03/14 05:51:11;;;;;;;3.28;2.38;;;;;;;18.06;37.05;102093.81;5009176;28;20034;-62
2022/03/14 05:53:37;;;;;;;3.95;2.20;;;;;;;18.04;37.19;102096.59;5009351;28;20028;-63
2022/03/14 05:56:02;;;;;;;3.35;2.53;;;;;;;18.04;37.10;102095.78;5008654;28;20030;-62
2022/03/14 05:58:28;;;;;;;3.08;2.15;;;;;;;18.00;37.16;102100.53;5008983;28;20105;-63
2022/03/14 06:00:54;;;;;;;3.58;2.35;;;;;;;18.00;37.11;102100.53;5008886;28;20033;-63
2022/03/14 06:03:20;;;;;;;2.80;2.17;;;;;;;18.00;37.00;102100.53;5009051;28;20026;-63
2022/03/14 06:05:48;;;;;;;3.15;2.22;;;;;;;17.98;36.98;102091.13;5008947;28;20099;-62
2022/03/14 06:08:15;;;;;;;3.55;2.28;;;;;;;17.96;36.93;102099.19;5008799;28;20109;-64
2022/03/14 06:10:40;;;;;;;2.97;2.40;;;;;;;17.97;36.85;102089.47;5008848;28;20104;-63
2022/03/14 06:13:07;;;;;;;2.10;1.77;;;;;;;17.99;36.89;102093.59;5008292;28;20516;-63
2022/03/14 06:15:32;;;;;;;2.38;1.52;;;;;;;18.00;36.97;102095.25;5008982;28;20022;-63
2022/03/14 06:17:57;;;;;;;3.03;1.90;;;;;;;18.02;36.90;102092.47;5008987;28;20084;-62
2022/03/14 06:20:23;;;;;;;3.15;2.13;;;;;;;18.04;37.10;102091.34;5008799;28;20030;-63
2022/03/14 06:22:49;;;;;;;2.83;2.10;;;;;;;18.07;36.96;102096.31;5008380;28;20466;-64
2022/03/14 06:25:17;;;;;;;3.65;2.60;;;;;;;18.10;37.11;102098.63;5008345;28;20033;-63
2022/03/14 06:27:43;;;;;;;4.80;2.33;;;;;;;18.14;36.96;102105.25;5008789;28;20026;-63
2022/03/14 06:30:09;;;;;;;2.88;2.53;;;;;;;18.20;36.91;102111.72;5008268;28;20481;-63
2022/03/14 06:32:40;;;;;;;3.58;2.65;;;;;;;18.26;37.03;102110.28;5007955;28;20040;-63
2022/03/14 06:35:09;;;;;;;3.30;2.55;;;;;;;18.30;37.07;102106.34;5008896;28;20061;-63
2022/03/14 06:37:34;;;;;;;3.10;2.30;;;;;;;18.37;37.05;102117.94;5008234;28;20056;-64
2022/03/14 06:40:01;;;;;;;3.03;2.15;;;;;;;18.43;37.09;102117.31;5008456;28;20034;-63
2022/03/14 06:42:27;;;;;;;4.55;2.22;;;;;;;18.47;37.09;102122.09;5008685;28;20030;-63
2022/03/14 06:44:53;;;;;;;4.85;2.25;;;;;;;18.53;37.08;102123.31;5008286;28;20201;-62
2022/03/14 06:47:18;;;;;;;2.70;2.00;;;;;;;18.57;37.09;102129.91;5006694;28;20393;-63
2022/03/14 06:49:45;;;;;;;3.25;2.42;;;;;;;18.62;37.02;102130.31;5008195;28;20033;-62
2022/03/14 06:52:11;;;;;;;3.25;2.13;;;;;;;18.64;36.96;102132.81;5008222;28;20109;-63
2022/03/14 06:54:37;;;;;;;2.95;2.33;;;;;;;18.68;37.05;102131.50;5008164;28;20034;-61
2022/03/14 06:57:03;;;;;;;3.58;2.20;;;;;;;18.74;37.07;102141.44;5008221;28;20025;-61
2022/03/14 06:59:29;;;;;;;5.18;2.45;;;;;;;18.77;36.99;102139.31;5008168;28;20026;-62
2022/03/14 07:01:54;;;;;;;4.60;2.67;;;;;;;18.81;37.01;102142.47;5008080;28;20080;-62
2022/03/14 07:04:20;;;;;;;3.78;1.95;;;;;;;18.84;36.93;102150.91;5008067;28;20034;-61
2022/03/14 07:06:45;;;;;;;3.30;2.33;;;;;;;18.89;36.97;102142.50;5008048;28;20026;-63
2022/03/14 07:09:11;;;;;;;2.95;2.20;;;;;;;18.92;36.94;102147.44;5008050;28;20038;-62
2022/03/14 07:11:37;;;;;;;2.70;2.30;;;;;;;18.96;36.86;102153.25;5007721;28;20032;-63
2022/03/14 07:14:03;;;;;;;3.45;2.00;;;;;;;19.00;36.82;102154.59;5008098;28;20037;-62
2022/03/14 07:16:28;;;;;;;3.75;1.75;;;;;;;19.02;36.83;102156.06;5007799;28;20044;-63
2022/03/14 07:18:54;;;;;;;3.60;2.47;;;;;;;19.06;36.78;102165.34;5007899;28;20057;-62
2022/03/14 07:21:19;;;;;;;3.47;2.28;;;;;;;19.09;36.78;102166.84;5008037;28;20088;-63
2022/03/14 07:23:45;;;;;;;4.43;2.08;;;;;;;19.12;36.80;102172.63;5008120;28;20477;-62
2022/03/14 07:26:11;;;;;;;2.35;1.98;;;;;;;19.14;36.68;102165.38;5007283;28;20049;-61
2022/03/14 07:28:37;;;;;;;5.65;2.38;;;;;;;19.19;36.56;102170.19;5007467;28;20040;-63
2022/03/14 07:31:03;;;;;;;3.28;1.98;;;;;;;19.19;36.73;102168.38;4992025;28;20030;-62
2022/03/14 07:33:28;;;;;;;2.35;1.80;;;;;;;19.19;36.63;102172.84;5002445;28;20026;-62
2022/03/14 07:35:54;;;;;;;2.55;1.75;;;;;;;19.18;36.65;102174.66;5007359;28;20121;-62
2022/03/14 07:38:20;;;;;;;3.85;1.88;;;;;;;19.18;36.84;102181.75;5007877;28;20378;-62
2022/03/14 07:40:45;;;;;;;8.80;2.63;;;;;;;19.21;36.79;102192.00;5006518;28;20029;-62
2022/03/14 07:43:11;;;;;;;12.02;3.85;;;;;;;19.22;36.56;102191.84;5003015;28;20036;-63
2022/03/14 07:45:37;;;;;;;6.75;3.33;;;;;;;19.30;36.65;102190.22;5009004;28;20040;-64
2022/03/14 07:48:03;;;;;;;9.18;3.38;;;;;;;19.37;37.15;102194.72;5010922;28;20480;-63
2022/03/14 07:50:29;;;;;;;10.48;3.08;;;;;;;19.46;37.78;102204.28;5010707;28;20492;-63
2022/03/14 07:52:55;;;;;;;7.10;2.92;;;;;;;19.54;37.89;102200.88;5005920;28;20080;-62
2022/03/14 07:55:21;;;;;;;10.93;3.58;;;;;;;19.64;38.17;102198.09;5010196;28;20030;-59
2022/03/14 07:57:47;;;;;;;6.32;2.60;;;;;;;19.63;38.47;102207.84;5010689;28;20508;-64
2022/03/14 08:00:14;;;;;;;9.05;2.67;;;;;;;19.60;38.52;102209.97;5010437;28;20072;-67
2022/03/14 08:02:40;;;;;;;5.45;2.63;;;;;;;19.55;38.80;102206.00;5010065;28;20462;-63
2022/03/14 08:05:08;;;;;;;6.13;2.13;;;;;;;19.52;38.76;102219.53;5009706;28;20034;-62
2022/03/14 08:07:34;;;;;;;5.97;2.28;;;;;;;19.50;38.88;102218.00;5011155;28;20116;-63
2022/03/14 08:10:09;;;;;;;6.95;2.30;;;;;;;19.50;38.94;102215.38;5007555;28;20482;-63
2022/03/14 08:12:50;;;;;;;5.38;2.30;;;;;;;19.48;38.95;102218.19;5007647;28;20053;-63
2022/03/14 08:15:21;;;;;;;12.77;2.30;;;;;;;19.46;38.64;102222.78;5006392;28;20062;-63
2022/03/14 08:17:47;;;;;;;4.53;2.45;;;;;;;19.44;38.58;102227.41;5009456;28;20092;-62
2022/03/14 08:20:13;;;;;;;4.38;1.88;;;;;;;19.44;38.25;102221.28;5008058;28;20033;-62
2022/03/14 08:22:39;;;;;;;7.20;2.15;;;;;;;19.42;38.12;102221.44;5009915;28;20044;-61
2022/03/14 08:25:05;;;;;;;3.50;2.42;;;;;;;19.40;38.10;102222.59;5007481;28;20594;-61
2022/03/14 08:27:30;;;;;;;8.15;2.60;;;;;;;19.42;38.30;102218.81;5006699;28;20080;-62
2022/03/14 08:29:56;;;;;;;13.07;3.45;;;;;;;19.44;38.61;102222.13;5008110;28;20112;-61
2022/03/14 08:32:23;;;;;;;5.60;2.75;;;;;;;19.47;38.45;102226.25;5007054;28;20083;-61
2022/03/14 08:34:52;;;;;;;7.00;2.40;;;;;;;19.46;38.51;102229.91;5008336;28;20030;-61
2022/03/14 08:37:18;;;;;;;4.53;2.05;;;;;;;19.44;38.49;102227.41;5007276;28;20045;-61
2022/03/14 08:39:44;;;;;;;8.68;2.33;;;;;;;19.42;38.37;102226.75;5008449;28;20034;-61
2022/03/14 08:42:10;;;;;;;9.25;2.17;;;;;;;19.40;38.44;102220.78;5009637;28;20463;-61
2022/03/14 08:44:35;;;;;;;5.18;2.63;;;;;;;19.39;38.25;102221.78;5009174;28;20030;-61
2022/03/14 08:47:03;;;;;;;4.38;1.95;;;;;;;19.38;38.22;102225.41;5008899;28;20034;-62
2022/03/14 08:49:28;;;;;;;6.85;2.13;;;;;;;19.37;38.08;102222.94;5009753;28;20034;-62
2022/03/14 08:51:54;;;;;;;4.13;1.98;;;;;;;19.37;38.17;102233.53;5010386;28;20034;-62
2022/03/14 08:54:19;;;;;;;5.55;2.17;;;;;;;19.37;38.83;102237.00;5008918;28;20037;-61
2022/03/14 08:56:45;;;;;;;5.40;2.55;;;;;;;19.35;38.83;102233.69;5008776;28;20458;-62
2022/03/14 08:59:12;;;;;;;12.07;2.65;;;;;;;19.35;38.72;102235.50;5009539;28;20026;-63
2022/03/14 09:01:38;;;;;;;10.15;2.40;;;;;;;19.32;38.60;102234.00;5008807;28;20033;-63
2022/03/14 09:04:05;;;;;;;4.88;2.00;;;;;;;19.34;38.50;102247.88;5009112;28;20096;-62
2022/03/14 09:06:31;;;;;;;10.20;3.25;;;;;;;19.30;38.19;102235.97;5008140;28;20342;-62
2022/03/14 09:08:56;;;;;;;8.93;2.40;;;;;;;19.29;37.67;102238.78;5009606;28;20648;-62
2022/03/14 09:11:23;;;;;;;9.20;2.50;;;;;;;19.27;37.54;102232.81;5007412;28;20477;-62
2022/03/14 09:13:49;;;;;;;11.50;2.40;;;;;;;19.25;37.38;102234.78;5008157;28;20054;-62
2022/03/14 09:16:14;;;;;;;4.18;1.92;;;;;;;19.21;37.57;102248.31;5007606;28;20467;-61
2022/03/14 09:18:39;;;;;;;12.38;2.25;;;;;;;19.19;37.40;102239.72;5008367;28;20453;-61
2022/03/14 09:21:05;;;;;;;5.93;2.28;;;;;;;19.17;37.35;102240.84;5007930;28;20381;-62
2022/03/14 09:23:30;;;;;;;4.00;2.25;;;;;;;19.14;37.36;102228.78;5008719;28;20026;-62
2022/03/14 09:25:58;;;;;;;5.50;1.77;;;;;;;19.11;37.30;102239.66;5009332;28;20014;-64
2022/03/14 09:28:23;;;;;;;2.55;1.65;;;;;;;19.09;37.57;102236.34;5008649;28;20034;-61
2022/03/14 09:30:49;;;;;;;6.20;1.77;;;;;;;19.08;37.64;102239.97;5008239;28;20029;-61
2022/03/14 09:33:15;;;;;;;3.67;1.90;;;;;;;19.07;37.51;102237.50;5008975;28;20478;-62
2022/03/14 09:35:41;;;;;;;3.88;1.75;;;;;;;19.04;37.74;102228.06;5008429;28;20057;-62
2022/03/14 09:38:06;;;;;;;3.25;1.95;;;;;;;19.03;37.72;102233.50;5009052;28;20268;-62
2022/03/14 09:40:32;;;;;;;5.32;1.80;;;;;;;19.01;37.96;102233.66;5009468;28;20030;-62
2022/03/14 09:42:59;;;;;;;2.33;1.45;;;;;;;19.00;38.03;102233.81;5009027;28;20038;-62
2022/03/14 09:45:26;;;;;;;4.85;1.20;;;;;;;18.98;38.10;102233.97;5007949;28;20038;-62
2022/03/14 09:47:57;;;;;;;2.95;1.60;;;;;;;18.96;37.99;102232.47;5005376;28;20418;-60
2022/03/14 09:50:26;;;;;;;3.40;1.25;;;;;;;18.95;38.13;102244.03;5008242;28;20124;-62
2022/03/14 09:52:54;;;;;;;3.47;1.50;;;;;;;18.95;38.20;102241.38;5008719;28;20022;-62
2022/03/14 09:55:20;;;;;;;3.58;1.55;;;;;;;18.94;38.17;102242.38;5008158;28;20112;-62
2022/03/14 09:57:45;;;;;;;3.05;1.70;;;;;;;18.92;38.32;102239.88;5009011;28;20051;-62
2022/03/14 10:00:14;;;;;;;3.97;1.20;;;;;;;18.90;38.33;102244.53;5007734;28;20121;-61
2022/03/14 10:02:44;;;;;;;3.22;1.52;;;;;;;18.91;38.34;102248.78;5008322;28;20128;-62
2022/03/14 10:05:13;;;;;;;4.40;1.75;;;;;;;18.89;38.21;102251.63;5008259;28;20114;-62
2022/03/14 10:07:40;;;;;;;5.20;1.48;;;;;;;18.90;38.31;102257.72;5008140;28;20026;-64
2022/03/14 10:10:06;;;;;;;3.67;1.60;;;;;;;18.90;38.25;102269.09;5007879;28;20045;-62
2022/03/14 10:12:33;;;;;;;2.78;1.38;;;;;;;18.92;38.12;102262.81;5005773;28;20048;-61
2022/03/14 10:15:00;;;;;;;2.67;1.45;;;;;;;18.93;38.03;102261.84;5005879;28;20029;-63
2022/03/14 10:17:27;;;;;;;2.50;1.40;;;;;;;18.93;38.19;102267.13;5004147;28;20041;-64
2022/03/14 10:19:54;;;;;;;3.65;1.52;;;;;;;18.94;38.10;102264.31;5005961;28;20030;-63
2022/03/14 10:22:20;;;;;;;2.92;1.33;;;;;;;18.95;37.64;102254.59;5003947;28;20094;-63
2022/03/14 10:24:46;;;;;;;2.17;1.25;;;;;;;18.95;37.17;102251.94;5007415;28;20087;-63
2022/03/14 10:27:16;;;;;;;2.90;1.33;;;;;;;18.95;36.74;102259.88;5006895;28;20041;-63
2022/03/14 10:29:42;;;;;;;2.13;1.15;;;;;;;18.95;36.48;102251.94;5007776;28;20485;-63
2022/03/14 10:32:32;;;;;;;3.45;1.30;;;;;;;18.93;36.11;102256.56;5006995;28;20131;-63
2022/03/14 10:35:00;;;;;;;3.70;1.15;;;;;;;18.90;35.79;102247.97;5007275;28;20069;-64
2022/03/14 10:37:28;;;;;;;1.92;1.13;;;;;;;18.90;35.70;102253.25;5007572;28;20030;-64
2022/03/14 10:40:08;;;;;;;3.17;0.93;;;;;;;18.88;35.14;102249.97;5007852;28;20152;-63
2022/03/14 10:42:41;;;;;;;2.03;0.95;;;;;;;18.89;35.22;102256.06;5008509;28;20037;-63
2022/03/14 10:45:11;;;;;;;1.98;1.10;;;;;;;18.88;35.04;102254.41;4999492;28;20048;-64
2022/03/14 10:47:37;;;;;;;2.80;0.70;;;;;;;18.85;34.76;102254.72;5005366;28;20033;-63
2022/03/14 10:50:03;;;;;;;2.28;0.98;;;;;;;18.82;34.56;102250.56;5006503;28;20067;-64
2022/03/14 10:52:29;;;;;;;4.07;1.77;;;;;;;18.77;34.31;102250.22;5007661;28;20034;-62
2022/03/14 10:54:55;;;;;;;2.65;1.10;;;;;;;18.75;34.21;102246.06;5006775;28;20034;-62
2022/03/14 10:57:26;;;;;;;2.70;1.08;;;;;;;18.75;34.06;102248.72;5006506;28;20076;-62
2022/03/14 10:59:53;;;;;;;2.88;0.90;;;;;;;18.76;34.16;102243.28;5006632;28;20030;-62
2022/03/14 11:02:26;;;;;;;4.00;1.20;;;;;;;18.75;34.22;102249.53;5007498;28;20117;-63
2022/03/14 11:05:02;;;;;;;2.92;1.63;;;;;;;18.75;34.26;102246.91;5005017;28;20014;-62
2022/03/14 11:07:32;;;;;;;3.60;0.90;;;;;;;18.75;34.51;102254.81;5005281;28;20037;-61
2022/03/14 11:13:19;;;;;;;5.28;1.38;;;;;;;18.74;34.57;102252.34;4999932;28;20764;-63
2022/03/14 11:15:45;;;;;;;3.20;0.68;;;;;;;18.74;34.79;102245.25;5005462;28;20040;-63
2022/03/14 11:18:11;;;;;;;1.50;0.70;;;;;;;18.76;34.84;102248.56;5005247;28;20030;-64
2022/03/14 11:20:37;;;;;;;3.47;1.13;;;;;;;18.74;35.00;102247.88;5009500;28;20038;-62
2022/03/14 11:23:04;;;;;;;5.45;1.15;;;;;;;18.74;35.22;102255.81;5009848;28;20108;-65